Terminal Aerodrome Forecast
Issued by NWS

Home | Current Version | Previous Version | Text Only | Print | Product List | Glossary On
Versions: 1 2 3 4 5 6 7 8 9 10 11 12 13 14 15
000
FTUS43 KMQT 231134 AAA
TAFSAW
TAF AMD
KSAW 231134Z 2312/2412 35011KT P6SM -SHSN OVC011
     FM231600 35010KT P6SM BKN020
     FM231800 35008KT P6SM BKN035
     FM232100 01006KT P6SM BKN050
     FM240400 36005KT P6SM BKN030
     FM240700 02008KT P6SM OVC015
     FM241000 03012G19KT P6SM OVC015=

USA.gov is the U.S. government's official web portal to all federal, state and local government web resources and services.